Time;durP1;ratioP1;P1;durP2;ratioP2;P2;SDS_P1;SDS_P2;PMS_P1;PMS_P2;Temp;Humidity;BMP_temperature;BMP_pressure;BME280_temperature;BME280_humidity;BME280_pressure;Samples;Min_cycle;Max_cycle;Signal;HPM_P1;HPM_P2
2023/03/31 00:04:58;;;;;;;6.20;4.50;;;9.40;99.90;;;;;;10440654;28;20239;-79
2023/03/31 00:10:19;;;;;;;8.10;4.93;;;9.40;99.90;;;;;;10400550;28;20198;-79
2023/03/31 00:15:41;;;;;;;8.20;5.40;;;9.40;99.90;;;;;;10419123;28;20192;-78
2023/03/31 00:21:23;;;;;;;8.37;4.33;;;9.40;99.90;;;;;;10429342;28;20198;-80
2023/03/31 00:26:44;;;;;;;10.63;5.00;;;9.40;99.90;;;;;;10401294;28;20224;-80
2023/03/31 00:32:08;;;;;;;8.77;4.53;;;9.40;99.90;;;;;;10399784;28;20419;-80
2023/03/31 00:37:29;;;;;;;9.63;4.70;;;9.30;99.90;;;;;;10399831;28;20285;-78
2023/03/31 00:42:50;;;;;;;9.30;4.50;;;9.30;99.90;;;;;;10399577;28;20249;-79
2023/03/31 00:48:17;;;;;;;9.50;5.00;;;9.20;99.90;;;;;;10398498;28;20241;-76
2023/03/31 00:53:38;;;;;;;7.10;4.70;;;9.20;99.90;;;;;;10398662;28;20522;-80
2023/03/31 00:59:06;;;;;;;9.30;5.00;;;9.20;99.90;;;;;;10433366;28;20201;-80
2023/03/31 01:04:32;;;;;;;6.63;4.47;;;9.20;99.90;;;;;;10440472;28;20454;-79
2023/03/31 01:09:58;;;;;;;7.23;5.53;;;9.20;99.90;;;;;;10405961;28;20519;-77
2023/03/31 01:15:21;;;;;;;11.43;6.03;;;9.20;99.90;;;;;;10412685;28;20194;-80
2023/03/31 01:20:50;;;;;;;12.93;6.27;;;9.20;99.90;;;;;;10438654;28;20194;-79
2023/03/31 01:26:50;;;;;;;8.23;4.70;;;9.20;99.90;;;;;;10398845;28;20236;-79
2023/03/31 01:32:31;;;;;;;10.07;4.80;;;9.20;99.90;;;;;;10398728;28;20200;-80
2023/03/31 01:38:11;;;;;;;7.93;4.13;;;9.20;99.90;;;;;;10408670;28;20187;-80
2023/03/31 01:43:53;;;;;;;8.80;4.30;;;9.20;99.90;;;;;;10397884;28;20250;-78
2023/03/31 01:49:17;;;;;;;9.93;5.00;;;9.20;99.90;;;;;;10383319;28;20185;-79
2023/03/31 01:55:00;;;;;;;7.37;4.43;;;9.20;99.90;;;;;;10408406;28;20221;-80
2023/03/31 02:00:32;;;;;;;8.47;4.60;;;9.20;99.90;;;;;;10396351;28;20253;-78
2023/03/31 02:06:01;;;;;;;7.90;5.53;;;9.10;99.90;;;;;;10410509;28;20237;-81
2023/03/31 02:11:24;;;;;;;8.27;6.60;;;9.20;99.90;;;;;;10395647;28;20288;-78
2023/03/31 02:16:49;;;;;;;14.37;6.90;;;9.20;99.90;;;;;;10422746;28;20541;-79
2023/03/31 02:22:13;;;;;;;10.97;7.40;;;9.20;99.90;;;;;;10437873;28;20194;-80
2023/03/31 02:27:41;;;;;;;9.30;6.87;;;9.20;99.90;;;;;;10397494;28;20243;-76
2023/03/31 02:33:04;;;;;;;10.90;6.93;;;9.10;99.90;;;;;;10395343;28;20215;-80
2023/03/31 02:38:26;;;;;;;13.10;7.50;;;9.10;99.90;;;;;;10394995;28;20198;-79
2023/03/31 02:43:47;;;;;;;11.00;7.20;;;9.10;99.90;;;;;;10381080;28;20239;-80
2023/03/31 02:49:10;;;;;;;13.23;8.37;;;9.00;99.90;;;;;;10395785;28;20220;-80
2023/03/31 02:54:45;;;;;;;9.43;7.80;;;9.00;99.90;;;;;;10395619;28;20237;-80
2023/03/31 03:00:09;;;;;;;15.13;10.50;;;9.00;99.90;;;;;;10394952;28;20223;-80
2023/03/31 03:06:13;;;;;;;17.80;10.90;;;9.00;99.90;;;;;;10394660;28;20522;-79
2023/03/31 03:12:30;;;;;;;15.83;11.97;;;8.90;99.90;;;;;;10394981;28;20268;-79
2023/03/31 03:17:54;;;;;;;15.07;10.40;;;8.90;99.90;;;;;;10413586;28;20286;-79
2023/03/31 03:23:16;;;;;;;14.00;9.97;;;8.90;99.90;;;;;;10415011;28;20266;-79
2023/03/31 03:28:37;;;;;;;12.13;9.50;;;8.90;99.90;;;;;;10379900;28;20381;-79
2023/03/31 03:33:58;;;;;;;13.47;10.20;;;8.80;99.90;;;;;;10395071;28;20195;-80
2023/03/31 03:39:20;;;;;;;14.83;9.97;;;8.80;99.90;;;;;;10395414;28;20244;-80
2023/03/31 03:44:40;;;;;;;13.03;10.63;;;8.80;99.90;;;;;;10404977;28;20460;-79
2023/03/31 03:50:03;;;;;;;13.93;10.30;;;8.80;99.90;;;;;;10399556;28;20195;-79
2023/03/31 03:55:24;;;;;;;16.33;11.30;;;8.80;99.90;;;;;;10397782;28;20283;-80
2023/03/31 04:00:46;;;;;;;13.30;10.17;;;8.80;99.90;;;;;;10435242;28;20201;-78
2023/03/31 04:06:07;;;;;;;19.90;9.80;;;8.80;99.90;;;;;;10435120;28;20236;-79
2023/03/31 04:11:28;;;;;;;11.73;8.33;;;8.80;99.90;;;;;;10391932;28;20207;-79
2023/03/31 04:16:49;;;;;;;12.03;8.33;;;8.80;99.90;;;;;;10426384;28;20200;-79
2023/03/31 04:22:10;;;;;;;11.27;8.50;;;8.80;99.90;;;;;;10441851;28;20194;-76
2023/03/31 04:27:33;;;;;;;10.93;7.50;;;8.80;99.90;;;;;;10403306;28;20245;-79
2023/03/31 04:32:57;;;;;;;11.60;7.77;;;8.80;99.90;;;;;;10400893;28;20190;-80
2023/03/31 04:38:22;;;;;;;16.67;8.83;;;8.70;99.90;;;;;;10403528;28;20200;-77
2023/03/31 04:43:43;;;;;;;13.13;8.00;;;8.80;99.90;;;;;;10403930;28;20431;-79
2023/03/31 04:49:04;;;;;;;12.33;8.47;;;8.80;99.90;;;;;;10399862;28;20221;-80
2023/03/31 04:54:25;;;;;;;15.93;9.63;;;8.80;99.90;;;;;;10398075;28;20202;-80
2023/03/31 04:59:47;;;;;;;12.80;8.77;;;8.80;99.90;;;;;;10422888;28;20203;-80
2023/03/31 05:05:09;;;;;;;16.50;9.77;;;8.80;99.90;;;;;;10412957;28;20234;-80
2023/03/31 05:10:30;;;;;;;15.97;10.40;;;8.80;99.90;;;;;;10434818;28;20207;-80
2023/03/31 05:15:51;;;;;;;16.80;10.30;;;8.90;99.90;;;;;;10426382;28;20201;-77
2023/03/31 05:21:14;;;;;;;14.80;9.93;;;8.90;99.90;;;;;;10439752;28;20274;-79
2023/03/31 05:26:35;;;;;;;16.70;9.13;;;8.90;99.90;;;;;;10434395;28;20251;-77
2023/03/31 05:31:56;;;;;;;16.67;9.50;;;8.90;99.90;;;;;;10415853;28;20249;-76
2023/03/31 05:37:20;;;;;;;14.47;9.03;;;8.90;99.90;;;;;;10398213;28;20220;-80
2023/03/31 05:42:41;;;;;;;12.80;9.00;;;8.90;99.90;;;;;;10477995;28;20265;-80
2023/03/31 05:48:02;;;;;;;10.93;8.20;;;9.00;99.90;;;;;;10407439;28;20243;-79
2023/03/31 05:53:25;;;;;;;14.07;9.90;;;9.00;99.90;;;;;;10414076;28;20209;-80
2023/03/31 05:58:46;;;;;;;15.50;10.10;;;9.00;99.90;;;;;;10425184;28;20199;-76
2023/03/31 06:04:07;;;;;;;13.50;10.13;;;9.10;99.90;;;;;;10429991;28;20218;-79
2023/03/31 06:09:28;;;;;;;10.97;8.83;;;9.10;99.90;;;;;;10433049;28;20223;-78
2023/03/31 06:14:49;;;;;;;14.80;9.30;;;9.10;99.90;;;;;;10437783;28;20353;-77
2023/03/31 06:20:11;;;;;;;14.60;9.23;;;9.10;99.90;;;;;;10406931;28;20204;-76
2023/03/31 06:25:40;;;;;;;11.37;8.77;;;9.10;99.90;;;;;;10436417;28;20540;-79
2023/03/31 06:31:13;;;;;;;15.20;9.03;;;9.10;99.90;;;;;;10435726;28;20196;-80
2023/03/31 06:36:34;;;;;;;14.83;9.47;;;9.10;99.90;;;;;;10400399;28;20269;-80
2023/03/31 06:41:56;;;;;;;13.00;9.13;;;9.10;99.90;;;;;;10394513;28;20245;-76
2023/03/31 06:47:20;;;;;;;8.97;8.00;;;9.20;99.90;;;;;;10394097;28;20679;-77
2023/03/31 06:52:42;;;;;;;16.57;9.67;;;9.20;99.90;;;;;;10395735;28;20189;-76
2023/03/31 06:58:04;;;;;;;11.50;8.30;;;9.20;99.90;;;;;;10420360;28;20233;-80
2023/03/31 07:03:25;;;;;;;13.07;10.07;;;9.30;99.90;;;;;;10421943;28;20431;-76
2023/03/31 07:08:47;;;;;;;17.20;11.97;;;9.30;99.90;;;;;;10395341;28;20388;-76
2023/03/31 07:14:07;;;;;;;16.17;10.20;;;9.40;99.90;;;;;;10400026;28;20197;-83
2023/03/31 07:19:29;;;;;;;16.77;9.90;;;9.40;99.90;;;;;;10412578;28;20231;-82
2023/03/31 07:24:50;;;;;;;12.70;9.10;;;9.50;99.90;;;;;;10429819;28;20240;-80
2023/03/31 07:30:15;;;;;;;12.00;8.47;;;9.60;99.90;;;;;;10432302;28;20281;-87
2023/03/31 07:35:40;;;;;;;18.13;11.97;;;9.60;99.90;;;;;;10413595;28;20282;-78
2023/03/31 07:41:01;;;;;;;14.63;9.00;;;9.60;99.90;;;;;;10430502;28;20243;-80
2023/03/31 07:46:28;;;;;;;14.50;9.50;;;9.60;99.90;;;;;;10406483;28;20233;-79
2023/03/31 07:51:49;;;;;;;15.83;9.83;;;9.60;99.90;;;;;;10400191;28;20225;-83
2023/03/31 07:57:11;;;;;;;16.17;9.87;;;9.70;99.90;;;;;;10416498;28;20250;-80
2023/03/31 08:02:32;;;;;;;15.40;9.17;;;9.80;99.90;;;;;;10434468;28;20204;-78
2023/03/31 08:07:53;;;;;;;14.93;8.37;;;10.50;99.90;;;;;;10424051;28;20260;-79
2023/03/31 08:13:14;;;;;;;14.97;8.50;;;11.40;99.90;;;;;;10435992;28;20202;-78
2023/03/31 08:18:36;;;;;;;10.30;7.20;;;11.70;99.90;;;;;;10415632;28;20210;-77
2023/03/31 08:23:57;;;;;;;20.83;11.97;;;11.90;99.90;;;;;;10420232;28;20310;-79
2023/03/31 08:29:18;;;;;;;13.47;8.80;;;12.30;99.90;;;;;;10394946;28;20524;-79
2023/03/31 08:34:41;;;;;;;9.63;5.83;;;12.60;99.90;;;;;;10399361;28;20208;-81
2023/03/31 08:40:04;;;;;;;19.37;8.10;;;12.60;99.90;;;;;;10395145;28;20454;-88
2023/03/31 08:45:41;;;;;;;11.90;5.80;;;12.70;99.90;;;;;;10383865;28;20327;-79
2023/03/31 08:51:09;;;;;;;13.37;5.87;;;13.00;99.90;;;;;;10395094;28;20548;-79
2023/03/31 08:56:37;;;;;;;13.43;5.43;;;13.20;99.90;;;;;;10392099;28;20235;-79
2023/03/31 09:02:22;;;;;;;8.48;3.95;;;14.80;99.90;;;;;;10435792;28;20190;-82
2023/03/31 09:08:10;;;;;;;5.53;3.67;;;16.10;99.90;;;;;;10380470;28;20313;-77
2023/03/31 09:14:00;;;;;;;9.80;4.15;;;15.30;99.90;;;;;;10436531;28;20509;-78
2023/03/31 09:19:31;;;;;;;9.90;4.63;;;14.10;99.90;;;;;;10418980;28;20538;-82
2023/03/31 09:25:02;;;;;;;22.90;10.77;;;13.30;99.90;;;;;;10433554;28;20203;-79
2023/03/31 09:30:28;;;;;;;15.27;6.90;;;12.70;99.90;;;;;;10432736;28;20223;-86
2023/03/31 09:35:49;;;;;;;19.33;8.57;;;12.40;99.90;;;;;;10431567;28;20281;-78
2023/03/31 09:41:14;;;;;;;53.23;30.07;;;12.20;99.90;;;;;;10433191;28;20204;-80
2023/03/31 09:46:37;;;;;;;11.13;5.17;;;12.20;99.90;;;;;;10410129;28;20234;-82
2023/03/31 09:52:21;;;;;;;9.20;4.40;;;12.10;99.90;;;;;;10418942;28;20499;-79
2023/03/31 09:57:42;;;;;;;8.27;4.20;;;12.00;99.90;;;;;;10410832;28;20212;-78
2023/03/31 10:03:07;;;;;;;7.90;4.83;;;12.00;99.90;;;;;;10413715;28;20204;-80
2023/03/31 10:08:32;;;;;;;5.93;4.30;;;12.10;99.90;;;;;;10432304;28;20241;-79
2023/03/31 10:14:12;;;;;;;11.93;4.97;;;12.80;99.90;;;;;;10431168;28;20490;-80
2023/03/31 10:19:36;;;;;;;9.48;3.78;;;14.40;99.90;;;;;;10398336;28;20274;-80
2023/03/31 10:25:16;;;;;;;4.65;2.92;;;15.50;99.90;;;;;;10434610;28;20195;-81
2023/03/31 10:30:39;;;;;;;9.38;5.38;;;15.10;99.90;;;;;;10428726;28;20267;-85
2023/03/31 10:36:15;;;;;;;9.70;4.55;;;15.10;99.90;;;;;;10391706;28;20220;-79
2023/03/31 10:41:37;;;;;;;14.68;6.18;;;14.80;99.90;;;;;;10390399;28;20245;-77
2023/03/31 10:47:20;;;;;;;7.78;3.38;;;14.30;99.90;;;;;;10416175;28;20235;-79
2023/03/31 10:52:47;;;;;;;5.22;2.38;;;14.70;99.90;;;;;;10431316;28;20199;-81
2023/03/31 10:58:08;;;;;;;8.30;5.45;;;14.50;99.90;;;;;;10431137;28;20277;-78
2023/03/31 11:03:52;;;;;;;4.68;2.80;;;14.20;99.90;;;;;;10398825;28;20215;-84
2023/03/31 11:09:39;;;;;;;6.47;2.25;;;14.00;99.90;;;;;;10391672;28;20230;-79
2023/03/31 11:15:15;;;;;;;5.05;2.60;;;14.00;99.90;;;;;;10397498;28;20506;-78
2023/03/31 11:21:03;;;;;;;7.30;2.40;;;14.10;99.90;;;;;;10414332;28;20207;-80
2023/03/31 11:27:24;;;;;;;8.68;2.58;;;14.30;99.90;;;;;;10439002;28;20282;-79
2023/03/31 11:33:00;;;;;;;5.05;1.98;;;14.80;99.90;;;;;;10406769;28;20209;-79
2023/03/31 11:38:52;;;;;;;4.97;2.20;;;15.70;99.90;;;;;;10395680;28;20235;-79
2023/03/31 11:44:17;;;;;;;12.73;3.50;;;16.80;95.10;;;;;;10396668;28;20323;-78
2023/03/31 11:50:03;;;;;;;37.35;22.23;;;17.90;90.60;;;;;;10404768;28;20446;-79
2023/03/31 11:55:36;;;;;;;4.45;2.00;;;18.80;58.60;;;;;;10421519;28;20223;-78
2023/03/31 12:01:19;;;;;;;6.72;1.95;;;18.40;48.30;;;;;;10415526;28;20230;-79
2023/03/31 12:06:45;;;;;;;3.67;2.15;;;17.10;79.90;;;;;;10395282;28;20226;-80
2023/03/31 12:12:16;;;;;;;11.32;4.10;;;16.20;90.90;;;;;;10416283;28;20207;-76
2023/03/31 12:17:40;;;;;;;7.63;3.72;;;15.80;94.90;;;;;;10426200;28;20237;-77
2023/03/31 12:23:04;;;;;;;6.45;3.17;;;15.50;95.30;;;;;;10427301;28;20189;-76
2023/03/31 12:28:26;;;;;;;8.98;4.05;;;15.50;95.90;;;;;;10432454;28;20213;-78
2023/03/31 12:34:03;;;;;;;9.25;4.15;;;15.40;97.10;;;;;;10421374;28;20433;-78
2023/03/31 12:39:51;;;;;;;9.20;3.72;;;15.40;97.00;;;;;;10435520;28;20251;-77
2023/03/31 12:45:26;;;;;;;5.13;2.22;;;15.20;97.50;;;;;;10416212;28;20490;-78
2023/03/31 12:51:19;;;;;;;7.18;3.53;;;15.00;99.20;;;;;;10419826;28;20193;-77
2023/03/31 12:56:58;;;;;;;5.22;2.40;;;14.90;99.90;;;;;;10423099;28;20228;-79
2023/03/31 13:02:24;;;;;;;9.13;4.53;;;15.00;99.10;;;;;;10429275;28;20302;-78
2023/03/31 13:07:46;;;;;;;6.63;4.43;;;15.30;99.90;;;;;;10435405;28;20285;-76
2023/03/31 13:13:15;;;;;;;8.52;4.95;;;15.20;99.70;;;;;;10433268;28;20205;-76
2023/03/31 13:18:36;;;;;;;9.48;4.55;;;15.50;99.90;;;;;;10409471;28;20207;-78
2023/03/31 13:24:02;;;;;;;8.05;3.92;;;16.10;96.70;;;;;;10437300;28;20472;-87
2023/03/31 13:29:37;;;;;;;9.50;4.88;;;16.60;93.20;;;;;;10436328;28;20238;-79
2023/03/31 13:35:13;;;;;;;8.00;3.63;;;16.50;92.20;;;;;;10417616;28;20291;-76
2023/03/31 13:40:53;;;;;;;6.15;4.18;;;16.00;95.40;;;;;;10405989;28;20277;-78
2023/03/31 13:46:39;;;;;;;8.18;5.10;;;15.70;96.60;;;;;;10405629;28;20254;-80
2023/03/31 13:52:03;;;;;;;9.05;5.18;;;15.70;98.30;;;;;;10421364;28;20215;-80
2023/03/31 13:58:06;;;;;;;5.45;2.55;;;15.80;98.70;;;;;;10398293;28;20261;-78
2023/03/31 14:03:59;;;;;;;12.45;4.72;;;16.00;97.40;;;;;;10393096;28;20196;-77
2023/03/31 14:09:36;;;;;;;5.97;3.28;;;15.90;97.10;;;;;;10394361;28;20285;-79
2023/03/31 14:14:57;;;;;;;6.75;4.03;;;15.70;98.20;;;;;;10401349;28;20226;-80
2023/03/31 14:20:50;;;;;;;11.10;5.43;;;15.30;99.90;;;;;;10403757;28;20567;-79
2023/03/31 14:26:48;;;;;;;6.60;4.03;;;14.50;99.90;;;;;;10442523;28;20293;-77
2023/03/31 14:32:40;;;;;;;10.57;3.58;;;13.70;99.90;;;;;;10462481;28;20257;-77
2023/03/31 14:38:08;;;;;;;6.55;3.85;;;13.30;99.90;;;;;;10514253;28;20248;-79
2023/03/31 14:43:35;;;;;;;12.25;5.80;;;13.10;99.90;;;;;;10482862;28;20246;-78
2023/03/31 14:48:56;;;;;;;10.88;5.63;;;13.00;99.90;;;;;;10463287;28;20261;-76
2023/03/31 14:54:19;;;;;;;7.93;3.60;;;13.00;99.90;;;;;;10469153;28;20596;-80
2023/03/31 14:59:41;;;;;;;4.90;2.90;;;12.80;99.90;;;;;;10475698;28;20231;-78
2023/03/31 15:05:06;;;;;;;6.07;3.30;;;12.70;99.90;;;;;;10353371;28;20224;-82
2023/03/31 15:10:41;;;;;;;5.47;2.73;;;12.70;99.90;;;;;;10358102;28;20278;-77
2023/03/31 15:16:29;;;;;;;3.90;2.70;;;12.60;99.90;;;;;;10357850;28;20208;-79
2023/03/31 15:22:08;;;;;;;4.57;2.87;;;12.60;99.90;;;;;;10342941;28;20212;-77
2023/03/31 15:27:32;;;;;;;4.55;3.30;;;12.40;99.90;;;;;;10354411;28;20235;-79
2023/03/31 15:32:56;;;;;;;8.30;3.50;;;12.20;99.90;;;;;;10363886;28;20278;-77
2023/03/31 15:38:27;;;;;;;6.30;3.23;;;12.20;99.90;;;;;;10381470;28;20418;-78
2023/03/31 15:44:03;;;;;;;12.07;6.10;;;12.00;99.90;;;;;;10374196;28;20419;-79
2023/03/31 15:49:25;;;;;;;10.60;5.57;;;12.00;99.90;;;;;;10382319;28;20227;-76
2023/03/31 15:54:46;;;;;;;11.87;5.60;;;12.10;99.90;;;;;;10380795;28;20196;-77
2023/03/31 16:00:39;;;;;;;13.73;6.43;;;12.10;99.90;;;;;;10381593;28;20368;-78
2023/03/31 16:06:08;;;;;;;12.40;6.23;;;11.90;99.90;;;;;;10396719;28;20200;-79
2023/03/31 16:11:46;;;;;;;12.20;6.83;;;11.90;99.90;;;;;;10401795;28;20386;-77
2023/03/31 16:17:30;;;;;;;8.37;5.63;;;11.80;99.90;;;;;;10406038;28;20426;-76
2023/03/31 16:22:54;;;;;;;15.40;7.67;;;11.70;99.90;;;;;;10432915;28;20208;-77
2023/03/31 16:28:19;;;;;;;13.10;8.23;;;11.60;99.90;;;;;;10439578;28;20493;-79
2023/03/31 16:33:59;;;;;;;13.90;9.43;;;11.40;99.90;;;;;;10415242;28;20217;-78
2023/03/31 16:39:20;;;;;;;15.10;9.33;;;11.30;99.90;;;;;;10412944;28;20200;-77
2023/03/31 16:44:41;;;;;;;11.87;6.90;;;11.20;99.90;;;;;;10400920;28;20237;-79
2023/03/31 16:50:06;;;;;;;13.60;7.97;;;11.20;99.90;;;;;;10400696;28;20535;-77
2023/03/31 16:55:30;;;;;;;21.23;10.50;;;11.20;99.90;;;;;;10404322;28;20193;-78
2023/03/31 17:00:52;;;;;;;34.30;15.70;;;11.30;99.90;;;;;;10441294;28;20229;-80
2023/03/31 17:06:14;;;;;;;26.10;15.63;;;11.30;99.90;;;;;;10437788;28;20207;-80
2023/03/31 17:11:35;;;;;;;22.37;12.43;;;11.30;99.90;;;;;;10431341;28;20199;-77
2023/03/31 17:16:56;;;;;;;18.13;11.90;;;11.30;99.90;;;;;;10440476;28;20214;-79
2023/03/31 17:22:17;;;;;;;26.37;15.43;;;11.30;99.90;;;;;;10417258;28;20556;-79
2023/03/31 17:27:38;;;;;;;31.47;17.87;;;11.20;99.90;;;;;;10436707;28;20283;-79
2023/03/31 17:32:59;;;;;;;46.20;26.10;;;11.10;99.90;;;;;;10440231;28;20417;-79
2023/03/31 17:38:21;;;;;;;48.00;26.53;;;11.10;99.90;;;;;;10433687;28;20217;-79
2023/03/31 17:43:47;;;;;;;18.30;10.53;;;11.00;99.90;;;;;;10397164;28;20242;-79
2023/03/31 17:49:08;;;;;;;23.47;10.60;;;10.90;99.90;;;;;;10397204;28;20421;-80
2023/03/31 17:54:30;;;;;;;23.60;13.27;;;10.90;99.90;;;;;;10429881;28;20208;-75
2023/03/31 17:59:51;;;;;;;21.80;12.63;;;10.80;99.90;;;;;;10410930;28;20205;-80
2023/03/31 18:05:12;;;;;;;30.77;17.77;;;10.80;99.90;;;;;;10396543;28;20461;-79
2023/03/31 18:10:33;;;;;;;32.27;19.63;;;10.80;99.90;;;;;;10397098;28;20258;-78
2023/03/31 18:15:54;;;;;;;34.23;20.37;;;10.90;99.90;;;;;;10396901;28;20304;-79
2023/03/31 18:21:16;;;;;;;33.53;18.43;;;10.80;99.90;;;;;;10399893;28;20202;-75
2023/03/31 18:26:37;;;;;;;39.97;18.30;;;10.80;99.90;;;;;;10399955;28;20234;-76
2023/03/31 18:31:58;;;;;;;48.60;23.90;;;10.70;99.90;;;;;;10395957;28;20270;-78
2023/03/31 18:37:19;;;;;;;40.80;20.60;;;10.70;99.90;;;;;;10396287;28;20230;-76
2023/03/31 18:42:40;;;;;;;23.13;13.73;;;10.60;99.90;;;;;;10395958;28;20467;-78
2023/03/31 18:48:01;;;;;;;17.07;11.53;;;10.60;99.90;;;;;;10394868;28;20420;-78
2023/03/31 18:53:24;;;;;;;14.47;9.63;;;10.50;99.90;;;;;;10396024;28;20564;-79
2023/03/31 18:58:45;;;;;;;11.33;7.70;;;10.40;99.90;;;;;;10404695;28;20462;-78
2023/03/31 19:04:07;;;;;;;11.03;8.37;;;10.40;99.90;;;;;;10394957;28;20501;-79
2023/03/31 19:09:28;;;;;;;14.00;8.93;;;10.30;99.90;;;;;;10395545;28;20410;-77
2023/03/31 19:14:49;;;;;;;15.87;10.37;;;10.10;99.90;;;;;;10399197;28;20209;-79
2023/03/31 19:20:15;;;;;;;13.40;10.27;;;10.10;99.90;;;;;;10397509;28;20223;-77
2023/03/31 19:25:36;;;;;;;17.33;11.70;;;10.10;99.90;;;;;;10394058;28;20198;-80
2023/03/31 19:30:58;;;;;;;22.37;14.73;;;10.10;99.90;;;;;;10398413;28;20313;-79
2023/03/31 19:36:19;;;;;;;23.87;15.07;;;10.10;99.90;;;;;;10428656;28;20206;-78
2023/03/31 19:41:40;;;;;;;22.90;16.43;;;10.10;99.90;;;;;;10436631;28;20244;-78
2023/03/31 19:47:01;;;;;;;23.03;16.87;;;10.00;99.90;;;;;;10442986;28;20295;-77
2023/03/31 19:52:22;;;;;;;24.17;17.67;;;10.00;99.90;;;;;;10458836;28;20200;-77
2023/03/31 19:57:43;;;;;;;20.07;14.27;;;10.00;99.90;;;;;;10435113;28;20204;-76
2023/03/31 20:03:04;;;;;;;21.23;16.00;;;10.00;99.90;;;;;;10402450;28;20200;-79
2023/03/31 20:08:26;;;;;;;24.40;16.27;;;9.90;99.90;;;;;;10402005;28;20585;-76
2023/03/31 20:13:47;;;;;;;23.97;16.23;;;9.80;99.90;;;;;;10402248;28;20241;-79
2023/03/31 20:19:11;;;;;;;25.87;17.40;;;9.80;99.90;;;;;;10400662;28;20197;-77
2023/03/31 20:24:33;;;;;;;26.60;17.50;;;9.60;99.90;;;;;;10401362;28;20199;-78
2023/03/31 20:29:54;;;;;;;31.10;18.80;;;9.60;99.90;;;;;;10401184;28;20559;-80
2023/03/31 20:35:15;;;;;;;35.87;19.87;;;9.50;99.90;;;;;;10387604;28;20200;-78
2023/03/31 20:40:37;;;;;;;33.20;18.67;;;9.50;99.90;;;;;;10404068;28;20205;-77
2023/03/31 20:46:03;;;;;;;31.30;17.47;;;9.50;99.90;;;;;;10435344;28;20228;-77
2023/03/31 20:51:27;;;;;;;44.87;20.80;;;9.50;99.90;;;;;;10440228;28;20233;-77
2023/03/31 20:56:49;;;;;;;47.17;21.63;;;9.40;99.90;;;;;;10433877;28;20392;-80
2023/03/31 21:02:13;;;;;;;32.20;16.73;;;9.40;99.90;;;;;;10439497;28;20385;-79
2023/03/31 21:07:34;;;;;;;33.50;18.17;;;9.30;99.90;;;;;;10439836;28;20220;-77
2023/03/31 21:12:55;;;;;;;23.40;14.23;;;9.30;99.90;;;;;;10420810;28;20282;-77
2023/03/31 21:18:16;;;;;;;27.13;15.80;;;9.30;99.90;;;;;;10399426;28;20196;-77
2023/03/31 21:23:38;;;;;;;24.37;14.30;;;9.20;99.90;;;;;;10402193;28;20206;-78
2023/03/31 21:28:59;;;;;;;23.73;14.20;;;9.30;99.90;;;;;;10401839;28;20224;-78
2023/03/31 21:34:20;;;;;;;27.77;15.60;;;9.20;99.90;;;;;;10433303;28;20242;-79
2023/03/31 21:39:42;;;;;;;31.07;16.40;;;9.20;99.90;;;;;;10439093;28;20210;-78
2023/03/31 21:45:03;;;;;;;29.97;16.93;;;9.10;99.90;;;;;;10410817;28;20588;-78
2023/03/31 21:50:25;;;;;;;29.37;15.20;;;9.00;99.90;;;;;;10398504;28;20233;-76
2023/03/31 21:55:54;;;;;;;20.90;12.83;;;9.10;99.90;;;;;;10398312;28;20212;-77
2023/03/31 22:01:15;;;;;;;22.63;12.50;;;9.20;99.90;;;;;;10397362;28;20210;-79
2023/03/31 22:06:38;;;;;;;25.93;12.40;;;9.20;99.90;;;;;;10397456;28;20204;-79
2023/03/31 22:11:59;;;;;;;22.10;11.57;;;9.10;99.90;;;;;;10396359;28;20297;-77
2023/03/31 22:17:20;;;;;;;25.17;13.07;;;9.10;99.90;;;;;;10396592;28;20481;-77
2023/03/31 22:22:41;;;;;;;19.37;11.83;;;9.00;99.90;;;;;;10385343;28;20216;-77
2023/03/31 22:28:04;;;;;;;20.10;11.37;;;9.10;99.90;;;;;;10396895;28;20223;-78
2023/03/31 22:33:26;;;;;;;21.00;11.73;;;9.10;99.90;;;;;;10426607;28;20239;-77
2023/03/31 22:38:47;;;;;;;21.33;12.37;;;9.10;99.90;;;;;;10437638;28;20195;-80
2023/03/31 22:44:09;;;;;;;20.63;12.70;;;9.00;99.90;;;;;;10434568;28;20223;-78
2023/03/31 22:49:30;;;;;;;20.83;12.30;;;9.00;99.90;;;;;;10395294;28;20535;-77
2023/03/31 22:54:51;;;;;;;22.90;12.07;;;9.10;99.90;;;;;;10396226;28;20191;-78
2023/03/31 23:00:14;;;;;;;18.53;11.50;;;9.20;99.90;;;;;;10425423;28;20200;-77
2023/03/31 23:05:35;;;;;;;19.53;12.53;;;9.20;99.90;;;;;;10395588;28;20487;-78
2023/03/31 23:10:58;;;;;;;18.40;12.73;;;9.20;99.90;;;;;;10395491;28;20231;-79
2023/03/31 23:16:21;;;;;;;21.60;12.93;;;9.10;99.90;;;;;;10394558;28;20549;-79
2023/03/31 23:21:43;;;;;;;22.97;14.53;;;9.00;99.90;;;;;;10422996;28;20229;-77
2023/03/31 23:27:04;;;;;;;26.80;14.70;;;9.00;99.90;;;;;;10444965;28;20236;-77
2023/03/31 23:32:25;;;;;;;23.50;14.67;;;9.00;99.90;;;;;;10444520;28;20286;-79
2023/03/31 23:37:46;;;;;;;21.27;13.23;;;9.00;99.90;;;;;;10439033;28;20513;-79
2023/03/31 23:43:08;;;;;;;22.17;13.07;;;9.00;99.90;;;;;;10442480;28;20281;-78
2023/03/31 23:48:29;;;;;;;19.10;11.10;;;8.90;99.90;;;;;;10441318;28;20294;-77
2023/03/31 23:53:50;;;;;;;16.53;10.97;;;8.90;99.90;;;;;;10405902;28;20199;-77
2023/03/31 23:59:11;;;;;;;14.73;9.80;;;8.70;99.90;;;;;;10403563;28;20217;-78
